Time;durP1;ratioP1;P1;durP2;ratioP2;P2;SDS_P1;SDS_P2;PMS_P1;PMS_P2;Temp;Humidity;BMP_temperature;BMP_pressure;BME280_temperature;BME280_humidity;BME280_pressure;Samples;Min_cycle;Max_cycle;Signal;HPM_P1;HPM_P2
2023/02/12 00:01:29;;;;;;;0.20;0.20;;;7.00;99.90;;;;;;5054723;28;20029;-70
2023/02/12 00:03:55;;;;;;;0.20;0.20;;;7.10;99.90;;;;;;5054481;28;20020;-70
2023/02/12 00:06:21;;;;;;;0.10;0.10;;;7.10;99.90;;;;;;5054305;28;20017;-70
2023/02/12 00:08:52;;;;;;;0.10;0.10;;;7.00;99.90;;;;;;5055141;28;20090;-69
2023/02/12 00:11:21;;;;;;;0.20;0.20;;;7.10;99.90;;;;;;5054487;28;20037;-68
2023/02/12 00:13:46;;;;;;;0.20;0.20;;;7.10;99.90;;;;;;5054879;28;20047;-68
2023/02/12 00:16:15;;;;;;;0.10;0.10;;;7.10;99.90;;;;;;5054174;28;20033;-68
2023/02/12 00:18:41;;;;;;;0.10;0.10;;;7.10;99.90;;;;;;5054551;28;20029;-68
2023/02/12 00:21:07;;;;;;;0.20;0.20;;;7.10;99.90;;;;;;5054254;28;20017;-68
2023/02/12 00:23:34;;;;;;;0.10;0.10;;;7.10;99.90;;;;;;5054371;28;20025;-68
2023/02/12 00:26:03;;;;;;;0.35;0.35;;;7.10;99.90;;;;;;5054409;28;20029;-68
2023/02/12 00:28:28;;;;;;;0.40;0.40;;;7.10;99.90;;;;;;5054165;28;20487;-68
2023/02/12 00:30:54;;;;;;;0.10;0.10;;;7.10;99.90;;;;;;5054036;28;20056;-69
2023/02/12 00:33:19;;;;;;;0.20;0.20;;;7.10;99.90;;;;;;5054219;28;20064;-69
2023/02/12 00:35:54;;;;;;;0.17;0.17;;;7.10;99.90;;;;;;5054440;28;20061;-69
2023/02/12 00:38:20;;;;;;;0.10;0.10;;;7.10;99.90;;;;;;5054151;28;20013;-69
2023/02/12 00:40:45;;;;;;;0.10;0.10;;;7.10;99.90;;;;;;5053917;28;20078;-69
2023/02/12 00:43:11;;;;;;;0.10;0.10;;;7.10;99.90;;;;;;5053731;28;20028;-69
2023/02/12 00:45:36;;;;;;;0.20;0.20;;;7.10;99.90;;;;;;5054425;28;20474;-69
2023/02/12 00:48:03;;;;;;;0.10;0.10;;;7.10;99.90;;;;;;5053891;28;20028;-69
2023/02/12 00:50:29;;;;;;;0.10;0.10;;;7.10;99.90;;;;;;5054274;28;20491;-69
2023/02/12 00:52:54;;;;;;;0.10;0.10;;;7.00;99.90;;;;;;5053317;28;20106;-69
2023/02/12 00:55:20;;;;;;;0.10;0.10;;;7.00;99.90;;;;;;5053731;28;20028;-69
2023/02/12 00:57:45;;;;;;;0.10;0.10;;;7.00;99.90;;;;;;5053674;28;20068;-69
2023/02/12 01:00:12;;;;;;;0.10;0.10;;;7.00;99.90;;;;;;5053806;28;20028;-69
2023/02/12 01:02:37;;;;;;;0.20;0.20;;;6.90;99.90;;;;;;5053467;28;20021;-69
2023/02/12 01:05:03;;;;;;;0.20;0.20;;;6.80;99.90;;;;;;5053678;28;20025;-69
2023/02/12 01:07:29;;;;;;;0.20;0.20;;;6.60;99.90;;;;;;5054292;28;20031;-69
2023/02/12 01:09:55;;;;;;;0.10;0.10;;;6.50;99.90;;;;;;5053353;28;20427;-69
2023/02/12 01:12:21;;;;;;;0.10;0.10;;;6.40;99.90;;;;;;5053378;28;20075;-69
2023/02/12 01:14:46;;;;;;;0.30;0.30;;;6.20;99.90;;;;;;5053247;28;20072;-69
2023/02/12 01:17:12;;;;;;;0.10;0.10;;;6.10;99.90;;;;;;5053557;28;20021;-69
2023/02/12 01:19:37;;;;;;;0.20;0.20;;;6.00;99.90;;;;;;5053198;28;20040;-69
2023/02/12 01:22:03;;;;;;;0.10;0.10;;;6.00;99.90;;;;;;5053131;28;20028;-69
2023/02/12 01:24:28;;;;;;;0.20;0.20;;;5.80;99.90;;;;;;5053401;28;20502;-69
2023/02/12 01:26:54;;;;;;;0.10;0.10;;;5.70;99.90;;;;;;5053050;28;20025;-69
2023/02/12 01:29:19;;;;;;;0.10;0.10;;;5.60;99.90;;;;;;5053218;28;20096;-69
2023/02/12 01:31:45;;;;;;;0.10;0.10;;;5.50;99.90;;;;;;5052821;28;20279;-69
2023/02/12 01:34:11;;;;;;;0.20;0.20;;;5.40;99.90;;;;;;5053203;28;20082;-69
2023/02/12 01:36:36;;;;;;;0.10;0.10;;;5.30;99.90;;;;;;5053342;28;20457;-69
2023/02/12 01:39:04;;;;;;;0.10;0.10;;;5.30;99.90;;;;;;5053069;28;20029;-69
2023/02/12 01:41:33;;;;;;;0.13;0.13;;;5.20;99.90;;;;;;5052538;28;20497;-69
2023/02/12 01:44:16;;;;;;;0.10;0.10;;;5.10;99.90;;;;;;5053531;28;20091;-69
2023/02/12 01:46:44;;;;;;;0.10;0.10;;;4.90;99.90;;;;;;5052814;28;20025;-69
2023/02/12 01:49:39;;;;;;;0.15;0.15;;;4.80;99.90;;;;;;5053121;28;20039;-69
2023/02/12 01:52:10;;;;;;;0.20;0.20;;;4.80;99.90;;;;;;5052066;28;20040;-69
2023/02/12 01:54:36;;;;;;;0.20;0.20;;;4.70;99.90;;;;;;5051979;28;20113;-69
2023/02/12 01:57:04;;;;;;;0.10;0.10;;;4.70;99.90;;;;;;5053055;28;20027;-69
2023/02/12 01:59:31;;;;;;;0.10;0.10;;;4.60;99.90;;;;;;5052576;28;20027;-69
2023/02/12 02:01:57;;;;;;;0.10;0.10;;;4.40;99.90;;;;;;5052640;28;20033;-69
2023/02/12 02:04:28;;;;;;;0.20;0.20;;;4.40;99.90;;;;;;5053194;28;20067;-69
2023/02/12 02:07:02;;;;;;;0.10;0.10;;;4.30;99.90;;;;;;5053016;28;20386;-69
2023/02/12 02:09:30;;;;;;;0.20;0.20;;;4.30;99.90;;;;;;5052953;28;20036;-69
2023/02/12 02:14:41;;;;;;;0.20;0.20;;;4.20;99.90;;;;;;5053194;28;20035;-69
2023/02/12 02:17:11;;;;;;;0.20;0.20;;;4.20;99.90;;;;;;5052924;28;20471;-69
2023/02/12 02:19:50;;;;;;;0.20;0.20;;;4.20;99.90;;;;;;5053193;28;20105;-69
2023/02/12 02:22:24;;;;;;;0.17;0.17;;;4.30;99.90;;;;;;5052617;28;20071;-69
2023/02/12 02:25:10;;;;;;;0.10;0.10;;;4.40;99.90;;;;;;5052359;28;20027;-69
2023/02/12 02:27:44;;;;;;;0.20;0.20;;;4.50;99.90;;;;;;5052670;28;20036;-69
2023/02/12 02:30:32;;;;;;;0.10;0.10;;;4.60;99.90;;;;;;5052564;28;20025;-69
2023/02/12 02:33:36;;;;;;;0.20;0.20;;;4.60;99.90;;;;;;5052795;28;20116;-69
2023/02/12 02:36:16;;;;;;;0.20;0.20;;;4.70;99.90;;;;;;5052266;28;20021;-69
2023/02/12 02:38:58;;;;;;;0.10;0.10;;;4.70;99.90;;;;;;5052545;28;20017;-69
2023/02/12 02:41:36;;;;;;;0.10;0.10;;;4.70;99.90;;;;;;5052323;28;20032;-69
2023/02/12 02:44:14;;;;;;;0.10;0.10;;;4.70;99.90;;;;;;5052946;28;20021;-69
2023/02/12 02:46:51;;;;;;;0.10;0.10;;;4.70;99.90;;;;;;5052280;28;20429;-69
2023/02/12 02:49:40;;;;;;;0.20;0.20;;;4.70;99.90;;;;;;5052703;28;20273;-69
2023/02/12 02:52:11;;;;;;;0.20;0.20;;;4.70;99.90;;;;;;5044528;28;20036;-69
2023/02/12 02:54:47;;;;;;;0.10;0.10;;;4.60;99.90;;;;;;5052317;28;20082;-69
2023/02/12 02:57:25;;;;;;;0.10;0.10;;;4.50;99.90;;;;;;5052208;28;20059;-69
2023/02/12 02:59:55;;;;;;;0.20;0.20;;;4.50;99.90;;;;;;5052451;28;20023;-69
2023/02/12 03:02:28;;;;;;;0.20;0.20;;;4.40;99.90;;;;;;5052409;28;20590;-69
2023/02/12 03:05:09;;;;;;;0.10;0.10;;;4.30;99.90;;;;;;5052512;28;20033;-69
2023/02/12 03:07:43;;;;;;;0.10;0.10;;;4.30;99.90;;;;;;5055087;28;20479;-69
2023/02/12 03:10:26;;;;;;;0.13;0.13;;;4.30;99.90;;;;;;5056002;28;20112;-69
2023/02/12 03:13:07;;;;;;;0.20;0.20;;;4.40;99.90;;;;;;5096809;22;20041;-72
2023/02/12 03:15:46;;;;;;;0.20;0.20;;;4.40;99.90;;;;;;5056030;28;20033;-72
2023/02/12 03:18:34;;;;;;;0.20;0.20;;;4.50;99.90;;;;;;5056092;28;20021;-73
2023/02/12 03:21:05;;;;;;;0.20;0.20;;;4.50;99.90;;;;;;5048401;28;20029;-72
2023/02/12 03:23:39;;;;;;;0.10;0.10;;;4.50;99.90;;;;;;5055654;28;20048;-72
2023/02/12 03:26:12;;;;;;;0.10;0.10;;;4.50;99.90;;;;;;5071402;28;20052;-72
2023/02/12 03:28:39;;;;;;;0.10;0.10;;;4.50;99.90;;;;;;5056178;28;20382;-72
2023/02/12 03:31:23;;;;;;;0.20;0.20;;;4.50;99.90;;;;;;5055486;28;20035;-72
2023/02/12 03:34:05;;;;;;;0.10;0.10;;;4.50;99.90;;;;;;5046478;28;20030;-72
2023/02/12 03:37:07;;;;;;;0.10;0.10;;;4.60;99.90;;;;;;5035738;28;20025;-72
2023/02/12 03:40:11;;;;;;;0.10;0.10;;;4.60;99.90;;;;;;5035792;28;20021;-72
2023/02/12 03:42:56;;;;;;;0.20;0.20;;;4.60;99.90;;;;;;5022393;28;20048;-72
2023/02/12 03:45:48;;;;;;;0.10;0.10;;;4.60;99.90;;;;;;5034449;28;20422;-72
2023/02/12 03:48:23;;;;;;;0.10;0.10;;;4.60;99.90;;;;;;5042243;28;20495;-72
2023/02/12 03:50:53;;;;;;;0.17;0.17;;;4.60;99.90;;;;;;5055289;28;20488;-72
2023/02/12 03:53:20;;;;;;;0.10;0.10;;;4.70;99.90;;;;;;5055116;28;20049;-72
2023/02/12 03:55:50;;;;;;;0.20;0.20;;;4.70;99.90;;;;;;5055037;28;20112;-73
2023/02/12 03:58:20;;;;;;;0.20;0.20;;;4.70;99.90;;;;;;5055159;28;20108;-72
2023/02/12 04:00:46;;;;;;;0.10;0.10;;;4.70;99.90;;;;;;5055599;28;20043;-72
2023/02/12 04:03:12;;;;;;;0.10;0.10;;;4.80;99.90;;;;;;5054575;28;20475;-73
2023/02/12 04:05:37;;;;;;;0.10;0.10;;;4.80;99.90;;;;;;5054035;28;20025;-72
2023/02/12 04:08:06;;;;;;;0.20;0.20;;;4.80;99.90;;;;;;5054917;28;20444;-73
2023/02/12 04:10:55;;;;;;;0.10;0.10;;;4.80;99.90;;;;;;5070015;28;20029;-72
2023/02/12 04:13:31;;;;;;;0.20;0.20;;;4.80;99.90;;;;;;5055147;28;20037;-72
2023/02/12 04:16:33;;;;;;;0.20;0.20;;;4.80;99.90;;;;;;5054552;28;20091;-72
2023/02/12 04:19:00;;;;;;;0.10;0.10;;;4.80;99.90;;;;;;5033990;28;20021;-73
2023/02/12 04:21:46;;;;;;;0.13;0.13;;;4.80;99.90;;;;;;5034827;28;20033;-72
2023/02/12 04:24:24;;;;;;;0.20;0.20;;;4.80;99.90;;;;;;5034909;28;20462;-72
2023/02/12 04:27:16;;;;;;;0.10;0.10;;;4.80;99.90;;;;;;5036511;28;20108;-71
2023/02/12 04:30:16;;;;;;;0.10;0.10;;;4.80;99.90;;;;;;5033595;28;20368;-72
2023/02/12 04:32:57;;;;;;;0.10;0.10;;;4.80;99.90;;;;;;5034162;28;20033;-72
2023/02/12 04:35:25;;;;;;;0.65;0.65;;;4.80;99.90;;;;;;5034795;28;20029;-72
2023/02/12 04:38:00;;;;;;;0.10;0.10;;;4.80;99.90;;;;;;5044841;28;20028;-72
2023/02/12 04:40:27;;;;;;;0.10;0.10;;;4.80;99.90;;;;;;5054568;28;20099;-72
2023/02/12 04:42:53;;;;;;;0.17;0.17;;;4.80;99.90;;;;;;5054396;28;20029;-72
2023/02/12 04:45:32;;;;;;;0.20;0.20;;;4.80;99.90;;;;;;5054422;28;20052;-72
2023/02/12 04:47:59;;;;;;;0.10;0.10;;;4.80;99.90;;;;;;5054104;28;20029;-73
2023/02/12 04:50:25;;;;;;;0.20;0.20;;;4.80;99.90;;;;;;5054307;28;20100;-72
2023/02/12 04:52:51;;;;;;;0.10;0.10;;;4.80;99.90;;;;;;5053927;28;20039;-73
2023/02/12 04:55:16;;;;;;;0.10;0.10;;;4.80;99.90;;;;;;5053997;28;20029;-72
2023/02/12 04:57:42;;;;;;;0.20;0.20;;;4.90;99.90;;;;;;5045514;28;20468;-72
2023/02/12 05:00:12;;;;;;;0.10;0.10;;;4.90;99.90;;;;;;5034177;28;20087;-73
2023/02/12 05:02:37;;;;;;;0.20;0.20;;;4.90;99.90;;;;;;5033955;28;20551;-72
2023/02/12 05:05:03;;;;;;;0.20;0.20;;;5.00;99.90;;;;;;5034407;28;20053;-72
2023/02/12 05:07:29;;;;;;;0.10;0.10;;;5.00;99.90;;;;;;5032360;28;20395;-72
2023/02/12 05:09:54;;;;;;;0.20;0.20;;;5.00;99.90;;;;;;5034558;28;20037;-72
2023/02/12 05:12:20;;;;;;;0.17;0.17;;;5.10;99.90;;;;;;5033452;28;20115;-72
2023/02/12 05:14:46;;;;;;;0.10;0.10;;;5.10;99.90;;;;;;5032891;28;20021;-72
2023/02/12 05:17:11;;;;;;;0.10;0.10;;;5.10;99.90;;;;;;5033468;28;20057;-73
2023/02/12 05:19:37;;;;;;;0.10;0.10;;;5.10;99.90;;;;;;5033940;28;20459;-72
2023/02/12 05:22:02;;;;;;;0.20;0.20;;;5.10;99.90;;;;;;5033493;28;20025;-73
2023/02/12 05:24:28;;;;;;;0.20;0.20;;;5.10;99.90;;;;;;5037436;28;20466;-72
2023/02/12 05:26:53;;;;;;;0.20;0.20;;;5.10;99.90;;;;;;5054325;28;20450;-73
2023/02/12 05:29:19;;;;;;;0.13;0.13;;;5.00;99.90;;;;;;5054070;28;20048;-73
2023/02/12 05:31:45;;;;;;;0.20;0.20;;;5.00;99.90;;;;;;5053542;28;20057;-72
2023/02/12 05:34:11;;;;;;;0.15;0.15;;;4.90;99.90;;;;;;5053797;28;20021;-72
2023/02/12 05:36:38;;;;;;;0.20;0.20;;;4.90;99.90;;;;;;5051919;28;20415;-73
2023/02/12 05:39:04;;;;;;;0.20;0.20;;;4.80;99.90;;;;;;5053316;28;20033;-72
2023/02/12 05:41:33;;;;;;;0.20;0.20;;;4.70;99.90;;;;;;5053315;28;20459;-73
2023/02/12 05:43:59;;;;;;;0.20;0.20;;;4.70;99.90;;;;;;5051829;28;20031;-72
2023/02/12 05:46:25;;;;;;;0.15;0.15;;;4.60;99.90;;;;;;5053380;28;20425;-72
2023/02/12 05:48:50;;;;;;;0.17;0.17;;;4.60;99.90;;;;;;5053198;28;20495;-72
2023/02/12 05:51:20;;;;;;;0.10;0.10;;;4.60;99.90;;;;;;5053259;28;20494;-72
2023/02/12 05:53:47;;;;;;;0.20;0.20;;;4.60;99.90;;;;;;5053172;28;20467;-72
2023/02/12 05:56:18;;;;;;;0.10;0.10;;;4.60;99.90;;;;;;5053791;28;20382;-73
2023/02/12 05:58:47;;;;;;;0.20;0.20;;;4.70;99.90;;;;;;5052899;28;20028;-72
2023/02/12 06:01:16;;;;;;;0.15;0.15;;;4.70;99.90;;;;;;5068727;28;20028;-72
2023/02/12 06:03:42;;;;;;;0.10;0.10;;;4.80;99.90;;;;;;5053018;28;20024;-72
2023/02/12 06:06:09;;;;;;;0.10;0.10;;;4.80;99.90;;;;;;5053118;28;20090;-72
2023/02/12 06:08:34;;;;;;;0.20;0.20;;;4.70;99.90;;;;;;5053410;28;20034;-73
2023/02/12 06:11:09;;;;;;;0.20;0.20;;;4.70;99.90;;;;;;5052733;28;20025;-72
2023/02/12 06:13:35;;;;;;;0.20;0.20;;;4.70;99.90;;;;;;5053065;28;20489;-72
2023/02/12 06:16:01;;;;;;;0.20;0.20;;;4.80;99.90;;;;;;5052723;28;20029;-73
2023/02/12 06:18:27;;;;;;;0.10;0.10;;;4.80;99.90;;;;;;5053091;28;20087;-72
2023/02/12 06:20:53;;;;;;;0.20;0.20;;;4.90;99.90;;;;;;5068294;28;20090;-72
2023/02/12 06:23:20;;;;;;;0.17;0.17;;;5.00;99.90;;;;;;5052860;28;20478;-72
2023/02/12 06:25:47;;;;;;;0.10;0.10;;;5.00;99.90;;;;;;5052887;28;20591;-72
2023/02/12 06:28:13;;;;;;;0.20;0.20;;;5.00;99.90;;;;;;5052628;28;20112;-73
2023/02/12 06:30:38;;;;;;;0.10;0.10;;;5.00;99.90;;;;;;5053198;28;20107;-72
2023/02/12 06:33:04;;;;;;;0.15;0.15;;;5.00;99.90;;;;;;5053071;28;20386;-72
2023/02/12 06:35:29;;;;;;;0.10;0.10;;;5.00;99.90;;;;;;5052954;28;20025;-72
2023/02/12 06:37:55;;;;;;;0.10;0.10;;;4.90;99.90;;;;;;5052807;28;20044;-73
2023/02/12 06:40:21;;;;;;;0.17;0.17;;;4.90;99.90;;;;;;5052730;28;20048;-72
2023/02/12 06:42:46;;;;;;;0.20;0.20;;;5.00;99.90;;;;;;5056362;28;20021;-72
2023/02/12 06:45:12;;;;;;;0.20;0.20;;;5.00;99.90;;;;;;5056263;28;20440;-72
2023/02/12 06:47:37;;;;;;;0.20;0.20;;;5.10;99.90;;;;;;5072032;28;20067;-72
2023/02/12 06:50:03;;;;;;;0.10;0.10;;;5.10;99.90;;;;;;5056405;28;20059;-73
2023/02/12 06:52:29;;;;;;;0.20;0.20;;;5.20;99.90;;;;;;5058624;22;20037;-72
2023/02/12 06:54:54;;;;;;;0.10;0.10;;;5.20;99.90;;;;;;5036377;28;20407;-73
2023/02/12 06:57:20;;;;;;;0.10;0.10;;;5.30;99.90;;;;;;5035011;28;20457;-73
2023/02/12 06:59:45;;;;;;;0.20;0.20;;;5.30;99.90;;;;;;5036532;28;20018;-72
2023/02/12 07:02:11;;;;;;;0.20;0.20;;;5.30;99.90;;;;;;5036669;28;20030;-72
2023/02/12 07:04:38;;;;;;;0.15;0.15;;;5.30;99.90;;;;;;5036353;28;20022;-73
2023/02/12 07:07:04;;;;;;;0.20;0.20;;;5.30;99.90;;;;;;5036205;28;20212;-72
2023/02/12 07:09:29;;;;;;;0.10;0.10;;;5.40;99.90;;;;;;5036035;28;20037;-72
2023/02/12 07:11:57;;;;;;;0.15;0.15;;;5.40;99.90;;;;;;5036829;28;20018;-72
2023/02/12 07:14:23;;;;;;;0.10;0.10;;;5.50;99.90;;;;;;5035639;28;20025;-73
2023/02/12 07:16:48;;;;;;;0.10;0.10;;;5.50;99.90;;;;;;5036119;28;20163;-72
2023/02/12 07:19:15;;;;;;;0.10;0.10;;;5.60;99.90;;;;;;5036121;28;20044;-73
2023/02/12 07:21:41;;;;;;;0.13;0.13;;;5.70;99.90;;;;;;5035628;28;20433;-72
2023/02/12 07:24:10;;;;;;;0.10;0.10;;;5.70;99.90;;;;;;5036420;28;20116;-72
2023/02/12 07:26:36;;;;;;;0.10;0.10;;;5.80;99.90;;;;;;5036004;28;20031;-73
2023/02/12 07:29:02;;;;;;;0.17;0.17;;;5.80;99.90;;;;;;5035820;28;20025;-72
2023/02/12 07:31:28;;;;;;;0.10;0.10;;;5.90;99.90;;;;;;5035774;28;20097;-73
2023/02/12 07:33:55;;;;;;;0.10;0.10;;;6.00;99.90;;;;;;5035699;28;20037;-73
2023/02/12 07:36:22;;;;;;;0.10;0.10;;;6.00;99.90;;;;;;5035433;28;20036;-72
2023/02/12 07:38:48;;;;;;;0.17;0.17;;;6.10;99.90;;;;;;5035682;28;20028;-73
2023/02/12 07:41:19;;;;;;;0.20;0.20;;;6.10;99.90;;;;;;5035388;28;20100;-72
2023/02/12 07:43:47;;;;;;;0.20;0.20;;;6.10;99.90;;;;;;5035695;28;20017;-72
2023/02/12 07:46:31;;;;;;;0.20;0.20;;;6.20;99.90;;;;;;5035232;28;20034;-73
2023/02/12 07:48:57;;;;;;;;;;;6.30;99.90;;;;;;5036074;28;20040;-73
2023/02/12 07:51:23;;;;;;;0.10;0.10;;;6.30;99.90;;;;;;5036335;28;19951;-73
2023/02/12 07:53:49;;;;;;;0.10;0.10;;;6.30;99.90;;;;;;5034713;28;20033;-72
2023/02/12 07:56:18;;;;;;;0.17;0.17;;;6.40;99.90;;;;;;5034009;28;20483;-73
2023/02/12 07:58:45;;;;;;;0.10;0.10;;;6.40;99.90;;;;;;5034931;28;20495;-73
2023/02/12 08:01:17;;;;;;;0.20;0.20;;;6.50;99.90;;;;;;5034921;28;20499;-73
2023/02/12 08:03:44;;;;;;;0.17;0.17;;;6.60;99.90;;;;;;5035235;28;20022;-73
2023/02/12 08:06:12;;;;;;;0.20;0.20;;;6.60;99.90;;;;;;5034203;28;20387;-73
2023/02/12 08:08:37;;;;;;;0.10;0.10;;;6.60;99.90;;;;;;5034651;28;20602;-73
2023/02/12 08:11:05;;;;;;;0.15;0.15;;;6.70;99.90;;;;;;5030565;28;20116;-73
2023/02/12 08:13:31;;;;;;;0.10;0.10;;;6.70;99.90;;;;;;5035024;28;20568;-73
2023/02/12 08:16:01;;;;;;;0.20;0.20;;;6.80;99.90;;;;;;5034177;28;20034;-73
2023/02/12 08:18:27;;;;;;;0.20;0.20;;;6.80;99.90;;;;;;5034933;28;20160;-74
2023/02/12 08:20:52;;;;;;;0.10;0.10;;;6.90;99.90;;;;;;5034704;28;20072;-73
2023/02/12 08:23:18;;;;;;;0.35;0.35;;;6.90;99.90;;;;;;5034704;28;20037;-73
2023/02/12 08:25:43;;;;;;;0.10;0.10;;;6.90;99.90;;;;;;5034574;28;20041;-73
2023/02/12 08:28:09;;;;;;;0.10;0.10;;;6.90;99.90;;;;;;5034959;28;20034;-73
2023/02/12 08:30:34;;;;;;;0.20;0.20;;;7.00;99.90;;;;;;5034839;28;20388;-73
2023/02/12 08:33:00;;;;;;;0.28;0.28;;;7.00;99.90;;;;;;5034457;28;20035;-73
2023/02/12 08:35:26;;;;;;;2.35;1.58;;;7.00;99.90;;;;;;5034364;28;20056;-72
2023/02/12 08:37:52;;;;;;;0.10;0.10;;;7.00;99.90;;;;;;5035015;28;20088;-73
2023/02/12 08:40:17;;;;;;;0.20;0.20;;;7.00;99.90;;;;;;5034437;28;20108;-73
2023/02/12 08:42:43;;;;;;;0.10;0.10;;;7.00;99.90;;;;;;5034497;28;20124;-73
2023/02/12 08:45:09;;;;;;;0.10;0.10;;;7.00;99.90;;;;;;5034259;28;20033;-73
2023/02/12 08:47:34;;;;;;;0.10;0.10;;;7.00;99.90;;;;;;5034297;28;20022;-73
2023/02/12 08:50:00;;;;;;;0.30;0.30;;;7.10;99.90;;;;;;5034534;28;20032;-73
2023/02/12 08:52:25;;;;;;;0.20;0.20;;;7.10;99.90;;;;;;5034271;28;20034;-73
2023/02/12 08:54:51;;;;;;;2.85;0.80;;;7.20;99.90;;;;;;5034260;28;20391;-73
2023/02/12 08:57:16;;;;;;;0.10;0.10;;;7.20;99.90;;;;;;5034262;28;20066;-73
2023/02/12 08:59:42;;;;;;;0.20;0.20;;;7.20;99.90;;;;;;5034252;28;20075;-73
2023/02/12 09:02:09;;;;;;;0.10;0.10;;;7.30;99.90;;;;;;5034130;28;20079;-73
2023/02/12 09:04:35;;;;;;;0.30;0.30;;;7.20;99.90;;;;;;5033916;28;20052;-73
2023/02/12 09:07:00;;;;;;;0.20;0.20;;;7.20;99.90;;;;;;5033801;28;20021;-73
2023/02/12 09:09:26;;;;;;;0.10;0.10;;;7.30;99.90;;;;;;5034130;28;20029;-73
2023/02/12 09:11:51;;;;;;;0.10;0.10;;;7.30;99.90;;;;;;5016794;28;20022;-73
2023/02/12 09:14:22;;;;;;;1.08;1.02;;;7.30;99.90;;;;;;5075002;22;20053;-71
2023/02/12 09:16:48;;;;;;;0.10;0.10;;;7.40;99.90;;;;;;5053724;28;20025;-71
2023/02/12 09:19:14;;;;;;;0.10;0.10;;;7.40;99.90;;;;;;5053595;28;20447;-71
2023/02/12 09:21:40;;;;;;;0.10;0.10;;;7.40;99.90;;;;;;5053230;28;20021;-71
2023/02/12 09:24:06;;;;;;;0.20;0.20;;;7.40;99.90;;;;;;5067015;28;20024;-70
2023/02/12 09:26:32;;;;;;;0.10;0.10;;;7.40;99.90;;;;;;5073303;28;20173;-70
2023/02/12 09:29:00;;;;;;;0.10;0.10;;;7.50;99.90;;;;;;5073434;28;20029;-70
2023/02/12 09:31:28;;;;;;;0.10;0.10;;;7.50;99.90;;;;;;5073411;28;20095;-70
2023/02/12 09:33:57;;;;;;;0.10;0.10;;;7.50;99.90;;;;;;5073309;28;20036;-70
2023/02/12 09:36:23;;;;;;;0.63;0.63;;;7.60;99.90;;;;;;5073071;28;20224;-70
2023/02/12 09:38:49;;;;;;;0.13;0.13;;;7.60;99.90;;;;;;5073249;28;20024;-70
2023/02/12 09:41:32;;;;;;;0.30;0.30;;;7.70;99.90;;;;;;5073231;28;20021;-70
2023/02/12 09:44:12;;;;;;;3.77;3.00;;;7.70;99.90;;;;;;5073284;28;20052;-71
2023/02/12 09:46:56;;;;;;;0.57;0.57;;;7.70;99.90;;;;;;5072956;28;20624;-71
2023/02/12 09:50:08;;;;;;;0.10;0.10;;;7.80;99.90;;;;;;5072868;28;20028;-71
2023/02/12 09:52:34;;;;;;;0.47;0.47;;;7.80;99.90;;;;;;5072919;28;20481;-71
2023/02/12 09:55:00;;;;;;;0.20;0.20;;;7.90;99.90;;;;;;5073180;28;20025;-71
2023/02/12 09:57:32;;;;;;;0.20;0.20;;;7.90;99.90;;;;;;5072832;28;20158;-71
2023/02/12 10:00:17;;;;;;;0.20;0.20;;;7.80;99.90;;;;;;5072958;28;20017;-71
2023/02/12 10:02:43;;;;;;;0.57;0.52;;;7.80;99.90;;;;;;5072363;28;20032;-71
2023/02/12 10:05:27;;;;;;;0.13;0.13;;;7.80;99.90;;;;;;5073080;28;20509;-71
2023/02/12 10:08:26;;;;;;;0.25;0.25;;;7.80;99.90;;;;;;5073005;28;20028;-71
2023/02/12 10:10:59;;;;;;;0.10;0.10;;;7.80;99.90;;;;;;5072966;28;20027;-71
2023/02/12 10:13:42;;;;;;;1.25;1.17;;;7.90;99.90;;;;;;5072254;28;20035;-71
2023/02/12 10:16:26;;;;;;;0.10;0.10;;;8.00;99.90;;;;;;5073849;28;20028;-71
2023/02/12 10:18:58;;;;;;;0.10;0.10;;;8.00;99.90;;;;;;5076685;28;20074;-71
2023/02/12 10:21:38;;;;;;;0.17;0.17;;;7.80;99.90;;;;;;5076960;28;20454;-71
2023/02/12 10:24:35;;;;;;;0.10;0.10;;;7.80;99.90;;;;;;5076629;28;20017;-71
2023/02/12 10:27:09;;;;;;;1.20;1.10;;;7.80;99.90;;;;;;5037225;28;20375;-71
2023/02/12 10:29:41;;;;;;;0.30;0.30;;;7.70;99.90;;;;;;5036555;28;20053;-71
2023/02/12 10:32:24;;;;;;;0.20;0.20;;;7.70;99.90;;;;;;5036815;28;20348;-71
2023/02/12 10:34:51;;;;;;;5.10;1.20;;;7.70;99.90;;;;;;5036334;28;20029;-71
2023/02/12 10:37:27;;;;;;;1.25;1.10;;;7.70;99.90;;;;;;5066771;28;20048;-71
2023/02/12 10:40:09;;;;;;;0.40;0.40;;;7.70;99.90;;;;;;5076190;28;20090;-71
2023/02/12 10:42:41;;;;;;;0.15;0.15;;;7.70;99.90;;;;;;5058517;28;20024;-71
2023/02/12 10:45:18;;;;;;;4.57;0.68;;;7.80;99.90;;;;;;5076322;28;20028;-71
2023/02/12 10:47:46;;;;;;;0.20;0.20;;;7.80;99.90;;;;;;5075873;28;20124;-71
2023/02/12 10:50:27;;;;;;;0.20;0.20;;;7.80;99.90;;;;;;5060985;28;20057;-71
2023/02/12 10:52:56;;;;;;;1.02;0.38;;;7.70;99.90;;;;;;5056069;28;20522;-71
2023/02/12 10:55:34;;;;;;;0.30;0.30;;;7.70;99.90;;;;;;5072921;28;20025;-71
2023/02/12 10:58:02;;;;;;;0.20;0.20;;;7.70;99.90;;;;;;5076219;28;20032;-71
2023/02/12 11:00:36;;;;;;;0.13;0.13;;;7.70;99.90;;;;;;5075869;28;20111;-71
2023/02/12 11:03:10;;;;;;;0.15;0.15;;;7.70;99.90;;;;;;5075866;28;20031;-71
2023/02/12 11:05:41;;;;;;;0.10;0.10;;;7.70;99.90;;;;;;5075547;28;20039;-71
2023/02/12 11:08:24;;;;;;;0.57;0.40;;;7.80;99.90;;;;;;5076124;28;20024;-71
2023/02/12 11:10:51;;;;;;;0.10;0.10;;;7.80;99.90;;;;;;5076375;28;20033;-71
2023/02/12 11:13:26;;;;;;;0.63;0.63;;;7.70;99.90;;;;;;5075042;28;20036;-71
2023/02/12 11:15:53;;;;;;;0.20;0.20;;;7.70;99.90;;;;;;5075829;28;20190;-71
2023/02/12 11:18:27;;;;;;;0.10;0.10;;;7.70;99.90;;;;;;5075472;28;20048;-71
2023/02/12 11:21:03;;;;;;;0.30;0.30;;;7.60;99.90;;;;;;5075857;28;20029;-71
2023/02/12 11:23:40;;;;;;;0.20;0.20;;;7.60;99.90;;;;;;5075566;28;20536;-71
2023/02/12 11:26:19;;;;;;;0.20;0.20;;;7.60;99.90;;;;;;5075442;28;20056;-71
2023/02/12 11:29:15;;;;;;;0.20;0.20;;;7.70;99.90;;;;;;5075290;28;20043;-71
2023/02/12 11:31:41;;;;;;;0.22;0.22;;;7.60;99.90;;;;;;5075792;28;20505;-70
2023/02/12 11:34:15;;;;;;;0.20;0.20;;;7.60;99.90;;;;;;5075117;28;20029;-70
2023/02/12 11:36:46;;;;;;;1.10;1.05;;;7.60;99.90;;;;;;5075466;28;20378;-70
2023/02/12 11:39:32;;;;;;;0.17;0.17;;;7.60;99.90;;;;;;5075132;28;20029;-70
2023/02/12 11:42:13;;;;;;;0.30;0.30;;;7.60;99.90;;;;;;5075514;28;20045;-70
2023/02/12 11:44:41;;;;;;;0.20;0.20;;;7.60;99.90;;;;;;5075321;28;20105;-70
2023/02/12 11:47:15;;;;;;;0.15;0.15;;;7.60;99.90;;;;;;5074697;28;20048;-70
2023/02/12 11:49:54;;;;;;;0.20;0.20;;;7.50;99.90;;;;;;5075115;28;20048;-70
2023/02/12 11:52:24;;;;;;;0.10;0.10;;;7.60;99.90;;;;;;5075202;28;20024;-70
2023/02/12 11:54:52;;;;;;;0.20;0.20;;;7.60;99.90;;;;;;5075115;28;20478;-70
2023/02/12 11:57:37;;;;;;;0.20;0.20;;;7.50;99.90;;;;;;5074736;28;20024;-71
2023/02/12 12:00:15;;;;;;;0.20;0.20;;;7.50;99.90;;;;;;5074976;28;20021;-71
2023/02/12 12:02:47;;;;;;;0.20;0.20;;;7.60;99.90;;;;;;5074679;28;20027;-71
2023/02/12 12:05:18;;;;;;;0.20;0.20;;;7.70;99.90;;;;;;5075099;28;20035;-71
2023/02/12 12:07:55;;;;;;;0.20;0.20;;;7.90;99.90;;;;;;5074803;28;20029;-71
2023/02/12 12:10:43;;;;;;;0.38;0.38;;;8.00;99.90;;;;;;5074688;28;20028;-72
2023/02/12 12:13:15;;;;;;;0.15;0.15;;;8.10;99.90;;;;;;5074434;28;20036;-71
2023/02/12 12:21:44;;;;;;;0.20;0.20;;;8.40;99.90;;;;;;5074738;28;20024;-71
2023/02/12 12:24:15;;;;;;;4.15;0.70;;;8.50;99.90;;;;;;5074306;28;20547;-71
2023/02/12 12:26:46;;;;;;;0.10;0.10;;;8.60;99.90;;;;;;5074411;28;20064;-71
2023/02/12 12:29:25;;;;;;;0.10;0.10;;;8.60;99.90;;;;;;5074544;28;20028;-71
2023/02/12 12:31:59;;;;;;;0.20;0.20;;;8.50;99.90;;;;;;5074155;28;20470;-71
2023/02/12 12:34:26;;;;;;;0.20;0.20;;;8.50;99.90;;;;;;5074128;28;20033;-71
2023/02/12 12:37:04;;;;;;;6.85;2.58;;;8.40;99.90;;;;;;5073847;28;20386;-71
2023/02/12 12:39:41;;;;;;;0.43;0.43;;;8.40;99.90;;;;;;5073495;28;20036;-71
2023/02/12 12:42:35;;;;;;;0.45;0.45;;;8.20;99.90;;;;;;5074091;28;20024;-71
2023/02/12 12:45:19;;;;;;;3.07;1.40;;;8.10;99.90;;;;;;5055941;28;20499;-71
2023/02/12 12:48:09;;;;;;;5.82;1.65;;;8.10;99.90;;;;;;5054593;28;20079;-71
2023/02/12 12:50:58;;;;;;;3.22;2.58;;;8.10;99.90;;;;;;5053636;28;20070;-71
2023/02/12 12:53:34;;;;;;;0.17;0.17;;;8.10;99.90;;;;;;5046253;28;20063;-71
2023/02/12 12:56:42;;;;;;;0.10;0.10;;;8.10;99.90;;;;;;5053772;28;20080;-71
2023/02/12 12:59:10;;;;;;;0.47;0.47;;;8.20;99.90;;;;;;5054274;28;20029;-71
2023/02/12 13:01:48;;;;;;;0.20;0.20;;;8.10;99.90;;;;;;5053451;28;20024;-71
2023/02/12 13:04:43;;;;;;;0.10;0.10;;;8.10;99.90;;;;;;5066597;28;20024;-71
2023/02/12 13:07:09;;;;;;;0.22;0.22;;;8.00;99.90;;;;;;5054399;28;20024;-71
2023/02/12 13:10:04;;;;;;;0.10;0.10;;;8.10;99.90;;;;;;5073367;28;20021;-70
2023/02/12 13:13:06;;;;;;;0.20;0.20;;;8.00;99.90;;;;;;5073113;28;20028;-70
2023/02/12 13:15:58;;;;;;;0.20;0.20;;;7.90;99.90;;;;;;5073462;28;20031;-70
2023/02/12 13:18:28;;;;;;;0.13;0.13;;;8.00;99.90;;;;;;5073426;28;20059;-70
2023/02/12 13:21:35;;;;;;;0.20;0.20;;;7.90;99.90;;;;;;5073326;28;20486;-70
2023/02/12 13:24:37;;;;;;;0.32;0.32;;;7.70;99.90;;;;;;5059610;28;20115;-70
2023/02/12 13:27:09;;;;;;;0.10;0.10;;;7.70;99.90;;;;;;5067899;28;20068;-71
2023/02/12 13:29:40;;;;;;;0.20;0.20;;;7.70;99.90;;;;;;5073807;28;20466;-72
2023/02/12 13:32:42;;;;;;;0.55;0.40;;;7.70;99.90;;;;;;5073689;28;20397;-72